createdAt,value
2022-12-05T00:00:35.796Z,12.38
2022-12-05T00:02:07.892Z,12.17
2022-12-05T00:03:40.181Z,12.25
2022-12-05T00:05:12.615Z,12.20
2022-12-05T00:06:44.973Z,12.32
2022-12-05T00:08:17.248Z,12.38
2022-12-05T00:09:49.380Z,13.20
2022-12-05T00:11:24.961Z,13.07
2022-12-05T00:12:57.046Z,13.13
2022-12-05T00:14:29.002Z,13.73
2022-12-05T00:16:00.977Z,13.25
2022-12-05T00:17:33.354Z,12.63
2022-12-05T00:19:07.285Z,12.73
2022-12-05T00:20:46.241Z,13.43
2022-12-05T00:22:18.256Z,13.68
2022-12-05T00:23:51.648Z,17.05
2022-12-05T00:25:23.674Z,18.92
2022-12-05T00:26:55.805Z,17.40
2022-12-05T00:28:27.808Z,17.48
2022-12-05T00:30:00.217Z,17.52
2022-12-05T00:31:32.613Z,16.57
2022-12-05T00:33:04.738Z,17.52
2022-12-05T00:34:36.741Z,18.52
2022-12-05T00:36:14.307Z,17.77
2022-12-05T00:37:46.330Z,17.73
2022-12-05T00:39:18.395Z,16.88
2022-12-05T00:40:50.467Z,16.48
2022-12-05T00:42:22.479Z,17.88
2022-12-05T00:43:55.002Z,18.08
2022-12-05T00:45:27.102Z,19.10
2022-12-05T00:46:59.096Z,18.77
2022-12-05T00:48:31.763Z,18.67
2022-12-05T00:50:05.458Z,19.93
2022-12-05T00:51:42.372Z,19.33
2022-12-05T00:53:14.376Z,18.75
2022-12-05T00:54:46.406Z,18.38
2022-12-05T00:56:22.622Z,19.65
2022-12-05T00:57:54.607Z,18.23
2022-12-05T00:59:26.662Z,19.85
2022-12-05T01:00:59.020Z,21.73
2022-12-05T01:02:31.122Z,22.35
2022-12-05T01:04:06.453Z,23.00
2022-12-05T01:05:38.552Z,20.92
2022-12-05T01:07:10.593Z,20.02
2022-12-05T01:08:43.190Z,21.23
2022-12-05T01:10:15.248Z,20.02
2022-12-05T01:11:48.173Z,19.20
2022-12-05T01:13:20.146Z,18.75
2022-12-05T01:14:52.220Z,17.63
2022-12-05T01:16:28.197Z,18.05
2022-12-05T01:18:00.359Z,20.73
2022-12-05T01:19:33.290Z,18.75
2022-12-05T01:21:06.684Z,18.90
2022-12-05T01:22:38.845Z,18.67
2022-12-05T01:24:12.110Z,18.23
2022-12-05T01:25:45.872Z,18.23
2022-12-05T01:27:17.839Z,18.67
2022-12-05T01:28:50.809Z,17.75
2022-12-05T01:31:55.272Z,17.08
2022-12-05T01:33:27.378Z,18.30
2022-12-05T01:34:59.347Z,18.00
2022-12-05T01:36:31.893Z,17.95
2022-12-05T01:38:03.952Z,18.63
2022-12-05T01:39:35.950Z,19.38
2022-12-05T01:41:11.418Z,18.45
2022-12-05T01:42:43.461Z,17.55
2022-12-05T01:44:15.571Z,17.33
2022-12-05T01:45:47.718Z,18.17
2022-12-05T01:47:19.931Z,19.33
2022-12-05T01:48:53.547Z,19.15
2022-12-05T01:52:02.295Z,16.73
2022-12-05T01:53:34.292Z,17.63
2022-12-05T01:55:14.470Z,17.10
2022-12-05T01:56:49.630Z,17.20
2022-12-05T01:58:22.264Z,18.30
2022-12-05T02:01:25.979Z,15.88
2022-12-05T02:03:00.554Z,15.02
2022-12-05T02:04:37.802Z,15.23
2022-12-05T02:06:09.920Z,15.25
2022-12-05T02:07:43.818Z,14.48
2022-12-05T02:09:15.822Z,13.88
2022-12-05T02:10:53.469Z,13.25
2022-12-05T02:12:25.977Z,13.18
2022-12-05T02:14:11.011Z,13.40
2022-12-05T02:15:57.102Z,13.75
2022-12-05T02:17:44.386Z,12.57
2022-12-05T02:19:49.016Z,12.85
2022-12-05T02:21:49.883Z,12.20
2022-12-05T02:23:49.520Z,12.48
2022-12-05T02:25:27.151Z,11.00
2022-12-05T02:27:20.791Z,11.82
2022-12-05T02:29:01.604Z,12.18
2022-12-05T02:30:51.879Z,11.68
2022-12-05T02:32:39.145Z,12.48
2022-12-05T02:34:34.670Z,11.82
2022-12-05T02:36:25.917Z,12.07
2022-12-05T02:38:22.880Z,12.35
2022-12-05T02:40:14.961Z,11.90
2022-12-05T02:42:04.194Z,12.90
2022-12-05T02:44:04.101Z,12.73
2022-12-05T02:45:38.107Z,13.13
2022-12-05T02:47:10.572Z,13.10
2022-12-05T02:48:43.261Z,13.65
2022-12-05T02:50:18.349Z,12.90
2022-12-05T02:51:53.880Z,12.55
2022-12-05T02:53:26.700Z,11.90
2022-12-05T02:54:58.964Z,12.23
2022-12-05T02:56:33.040Z,11.68
2022-12-05T02:58:09.643Z,11.77
2022-12-05T02:59:44.212Z,11.88
2022-12-05T03:01:16.449Z,11.32
2022-12-05T03:02:49.335Z,11.85
2022-12-05T03:04:23.232Z,13.07
2022-12-05T03:06:05.901Z,11.85
2022-12-05T03:07:38.633Z,13.43
2022-12-05T03:09:14.888Z,12.27
2022-12-05T03:10:47.584Z,12.93
2022-12-05T03:12:29.931Z,13.13
2022-12-05T03:14:02.830Z,13.90
2022-12-05T03:15:39.973Z,13.85
2022-12-05T03:17:22.251Z,13.45
2022-12-05T03:19:00.650Z,13.50
2022-12-05T03:20:35.830Z,13.38
2022-12-05T03:22:11.373Z,14.25
2022-12-05T03:23:47.972Z,13.85
2022-12-05T03:25:22.704Z,14.55
2022-12-05T03:27:13.321Z,14.80
2022-12-05T03:29:03.374Z,13.93
2022-12-05T03:30:39.156Z,14.73
2022-12-05T03:32:20.014Z,13.88
2022-12-05T03:33:57.212Z,13.10
2022-12-05T03:35:29.224Z,13.60
2022-12-05T03:37:07.620Z,12.82
2022-12-05T03:38:55.731Z,13.93
2022-12-05T03:40:55.485Z,13.32
2022-12-05T03:42:32.868Z,13.70
2022-12-05T03:44:10.067Z,13.20
2022-12-05T03:45:51.523Z,13.32
2022-12-05T03:47:44.804Z,13.70
2022-12-05T03:49:33.520Z,13.82
2022-12-05T03:51:08.178Z,13.27
2022-12-05T03:53:17.613Z,14.07
2022-12-05T03:54:46.348Z,13.15
2022-12-05T03:56:27.317Z,13.75
2022-12-05T03:59:40.297Z,14.30
2022-12-05T04:01:14.351Z,15.55
2022-12-05T04:02:56.441Z,14.35
2022-12-05T04:04:35.491Z,12.70
2022-12-05T04:06:18.634Z,13.88
2022-12-05T04:07:54.867Z,13.33
2022-12-05T04:09:32.930Z,13.55
2022-12-05T04:11:12.718Z,14.32
2022-12-05T04:12:46.050Z,14.05
2022-12-05T04:14:22.807Z,14.80
2022-12-05T04:16:20.543Z,13.80
2022-12-05T04:17:59.168Z,14.02
2022-12-05T04:20:15.883Z,14.10
2022-12-05T04:21:51.737Z,14.27
2022-12-05T04:23:24.115Z,14.55
2022-12-05T04:25:16.695Z,14.85
2022-12-05T04:26:56.101Z,14.27
2022-12-05T04:28:30.773Z,14.30
2022-12-05T04:30:09.810Z,14.63
2022-12-05T04:33:20.695Z,14.13
2022-12-05T04:34:56.899Z,14.35
2022-12-05T04:36:43.284Z,14.95
2022-12-05T04:38:27.351Z,14.02
2022-12-05T04:41:36.592Z,13.68
2022-12-05T04:43:10.228Z,13.25
2022-12-05T04:46:20.531Z,12.50
2022-12-05T04:47:57.832Z,12.88
2022-12-05T04:49:31.107Z,14.18
2022-12-05T04:51:07.819Z,13.95
2022-12-05T04:52:40.080Z,13.30
2022-12-05T04:54:17.571Z,13.63
2022-12-05T04:55:51.582Z,14.15
2022-12-05T04:57:30.314Z,12.55
2022-12-05T04:59:02.391Z,14.77
2022-12-05T05:00:38.936Z,15.35
2022-12-05T05:02:13.665Z,14.45
2022-12-05T05:03:55.727Z,13.60
2022-12-05T05:05:28.279Z,13.30
2022-12-05T05:07:00.416Z,14.15
2022-12-05T05:08:32.387Z,14.85
2022-12-05T05:10:04.686Z,13.90
2022-12-05T05:11:37.216Z,13.82
2022-12-05T05:13:09.261Z,13.52
2022-12-05T05:14:41.546Z,14.05
2022-12-05T05:16:18.472Z,15.15
2022-12-05T05:17:50.546Z,14.32
2022-12-05T05:19:22.689Z,14.23
2022-12-05T05:20:54.681Z,13.45
2022-12-05T05:22:27.389Z,14.93
2022-12-05T05:23:59.804Z,13.50
2022-12-05T05:25:31.765Z,13.30
2022-12-05T05:27:03.803Z,14.18
2022-12-05T05:28:35.853Z,15.02
2022-12-05T05:30:08.471Z,14.27
2022-12-05T05:31:41.078Z,14.97
2022-12-05T05:33:13.299Z,14.38
2022-12-05T05:34:45.243Z,13.80
2022-12-05T05:36:18.165Z,15.35
2022-12-05T05:37:50.228Z,14.23
2022-12-05T05:39:22.246Z,14.23
2022-12-05T05:40:54.181Z,14.82
2022-12-05T05:42:26.207Z,13.35
2022-12-05T05:43:58.386Z,15.57
2022-12-05T05:45:30.370Z,13.57
2022-12-05T05:47:02.484Z,14.43
2022-12-05T05:48:35.783Z,14.85
2022-12-05T05:50:08.963Z,15.10
2022-12-05T05:51:40.904Z,15.38
2022-12-05T05:53:13.002Z,15.25
2022-12-05T05:54:45.020Z,15.02
2022-12-05T05:56:21.843Z,13.38
2022-12-05T05:57:54.297Z,13.80
2022-12-05T05:59:26.354Z,13.68
2022-12-05T06:01:09.708Z,14.90
2022-12-05T06:02:41.813Z,15.43
2022-12-05T06:04:14.042Z,14.65
2022-12-05T06:05:53.109Z,14.15
2022-12-05T06:07:25.252Z,14.18
2022-12-05T06:08:57.366Z,15.93
2022-12-05T06:10:30.486Z,17.30
2022-12-05T06:12:03.477Z,16.85
2022-12-05T06:13:35.615Z,15.32
2022-12-05T06:15:08.343Z,16.98
2022-12-05T06:16:40.390Z,17.92
2022-12-05T06:18:12.432Z,18.45
2022-12-05T06:19:44.450Z,19.77
2022-12-05T06:21:16.806Z,20.23
2022-12-05T06:22:48.856Z,21.55
2022-12-05T06:24:21.714Z,22.50
2022-12-05T06:25:55.626Z,22.17
2022-12-05T06:27:32.651Z,23.33
2022-12-05T06:29:04.620Z,22.55
2022-12-05T06:30:38.843Z,26.30
2022-12-05T06:32:10.880Z,22.23
2022-12-05T06:33:43.617Z,20.42
2022-12-05T06:35:16.120Z,23.80
2022-12-05T06:36:48.176Z,21.77
2022-12-05T06:38:20.295Z,18.50
2022-12-05T06:39:53.381Z,16.63
2022-12-05T06:41:26.175Z,16.30
2022-12-05T06:42:58.179Z,15.80
2022-12-05T06:44:30.344Z,15.88
2022-12-05T06:46:07.024Z,14.93
2022-12-05T06:47:39.202Z,15.77
2022-12-05T06:49:11.355Z,14.57
2022-12-05T06:50:51.597Z,14.85
2022-12-05T06:52:23.676Z,16.65
2022-12-05T06:53:56.718Z,16.52
2022-12-05T06:55:28.768Z,16.10
2022-12-05T06:57:00.749Z,14.75
2022-12-05T06:58:32.893Z,15.55
2022-12-05T07:00:35.546Z,15.18
2022-12-05T07:02:08.771Z,14.18
2022-12-05T07:03:41.304Z,16.27
2022-12-05T07:05:13.474Z,15.70
2022-12-05T07:06:50.459Z,16.67
2022-12-05T07:08:23.345Z,15.63
2022-12-05T07:09:55.433Z,14.60
2022-12-05T07:11:27.552Z,15.40
2022-12-05T07:12:59.506Z,14.95
2022-12-05T07:14:47.027Z,15.15
2022-12-05T07:16:20.455Z,14.23
2022-12-05T07:17:52.515Z,15.00
2022-12-05T07:19:24.507Z,14.77
2022-12-05T07:21:11.677Z,13.88
2022-12-05T07:51:26.569Z,11.93
2022-12-05T07:52:58.635Z,12.52
2022-12-05T07:54:30.749Z,12.13
2022-12-05T07:56:05.342Z,11.93
2022-12-05T07:57:37.420Z,10.65
2022-12-05T07:59:09.562Z,12.00
2022-12-05T08:00:41.550Z,11.85
2022-12-05T08:02:13.669Z,11.05
2022-12-05T08:03:46.385Z,11.40
2022-12-05T08:05:18.372Z,10.67
2022-12-05T08:06:50.417Z,10.98
2022-12-05T08:08:22.731Z,10.60
2022-12-05T08:09:54.853Z,10.32
2022-12-05T08:11:30.450Z,9.63
2022-12-05T08:13:02.552Z,8.88
2022-12-05T08:14:34.571Z,8.95
2022-12-05T08:16:10.284Z,10.07
2022-12-05T08:17:42.470Z,10.05
2022-12-05T08:19:15.699Z,10.70
2022-12-05T08:20:47.746Z,11.82
2022-12-05T08:22:19.729Z,12.32
2022-12-05T08:23:52.487Z,10.30
2022-12-05T08:26:56.336Z,10.25
2022-12-05T08:28:28.410Z,9.00
2022-12-05T08:30:00.714Z,10.63
2022-12-05T08:31:35.132Z,9.73
2022-12-05T08:33:07.122Z,10.25
2022-12-05T08:34:39.106Z,7.57
2022-12-05T08:36:13.799Z,8.75
2022-12-05T08:37:45.856Z,11.48
2022-12-05T08:39:19.639Z,11.23
2022-12-05T08:40:51.690Z,10.35
2022-12-05T08:42:23.705Z,9.07
2022-12-05T08:44:01.711Z,9.32
2022-12-05T08:45:33.762Z,9.25
2022-12-05T08:47:05.861Z,10.00
2022-12-05T08:48:38.129Z,9.05
2022-12-05T08:50:10.255Z,9.48
2022-12-05T08:51:42.772Z,8.60
2022-12-05T08:53:15.346Z,8.65
2022-12-05T08:54:47.812Z,9.60
2022-12-05T08:56:26.359Z,9.07
2022-12-05T08:57:58.954Z,9.68
2022-12-05T08:59:31.519Z,9.50
2022-12-05T09:01:08.812Z,8.93
2022-12-05T09:02:40.815Z,8.93
2022-12-05T09:04:13.462Z,8.45
2022-12-05T09:05:45.431Z,9.30
2022-12-05T09:07:17.514Z,9.63
2022-12-05T09:08:50.521Z,9.50
2022-12-05T09:10:22.951Z,8.75
2022-12-05T09:11:54.943Z,10.38
2022-12-05T09:13:27.004Z,10.48
2022-12-05T09:14:59.353Z,9.73
2022-12-05T09:16:37.921Z,9.48
2022-12-05T09:18:10.882Z,8.73
2022-12-05T09:19:43.001Z,9.77
2022-12-05T09:21:23.176Z,10.00
2022-12-05T09:22:55.169Z,11.13
2022-12-05T09:24:27.677Z,11.30
2022-12-05T09:26:02.866Z,12.90
2022-12-05T09:27:34.904Z,13.02
2022-12-05T09:29:08.959Z,12.35
2022-12-05T09:30:46.399Z,13.13
2022-12-05T09:32:18.439Z,14.30
2022-12-05T09:33:51.526Z,13.85
2022-12-05T09:35:23.511Z,13.45
2022-12-05T09:37:10.199Z,14.82
2022-12-05T09:38:42.813Z,13.75
2022-12-05T09:40:19.393Z,13.48
2022-12-05T09:42:08.499Z,13.60
2022-12-05T09:43:47.723Z,14.05
2022-12-05T09:45:24.679Z,13.70
2022-12-05T09:47:21.685Z,13.07
2022-12-05T09:48:54.091Z,13.27
2022-12-05T09:50:31.937Z,13.40
2022-12-05T09:52:05.207Z,13.35
2022-12-05T09:53:41.902Z,13.75
2022-12-05T09:55:19.338Z,13.27
2022-12-05T09:56:52.263Z,14.10
2022-12-05T09:58:30.843Z,12.85
2022-12-05T10:01:46.856Z,13.23
2022-12-05T10:03:27.218Z,12.75
2022-12-05T10:05:22.741Z,14.00
2022-12-05T10:07:02.585Z,13.43
2022-12-05T10:08:51.689Z,15.20
2022-12-05T10:10:23.817Z,15.15
2022-12-05T10:12:16.344Z,13.70
2022-12-05T10:14:13.892Z,13.65
2022-12-05T10:15:57.645Z,13.07
2022-12-05T10:17:37.999Z,12.55
2022-12-05T10:19:40.530Z,12.60
2022-12-05T10:21:15.165Z,14.20
2022-12-05T10:22:50.134Z,15.65
2022-12-05T10:24:32.609Z,12.77
2022-12-05T10:26:09.191Z,12.32
2022-12-05T10:27:52.137Z,14.10
2022-12-05T10:29:44.176Z,13.50
2022-12-05T10:31:20.116Z,13.32
2022-12-05T10:32:59.059Z,11.52
2022-12-05T10:34:40.351Z,12.13
2022-12-05T10:36:14.276Z,14.30
2022-12-05T10:37:58.994Z,15.73
2022-12-05T10:39:31.023Z,19.50
2022-12-05T10:41:08.633Z,12.80
2022-12-05T10:42:41.878Z,10.90
2022-12-05T10:44:13.952Z,9.88
2022-12-05T10:45:48.372Z,10.95
2022-12-05T10:47:20.435Z,11.73
2022-12-05T10:48:52.378Z,11.43
2022-12-05T10:50:33.468Z,12.55
2022-12-05T10:52:06.018Z,11.00
2022-12-05T10:53:44.099Z,12.77
2022-12-05T10:55:18.702Z,11.98
2022-12-05T10:56:52.975Z,11.15
2022-12-05T10:58:27.520Z,11.45
2022-12-05T11:00:11.416Z,11.93
2022-12-05T11:01:48.099Z,10.10
2022-12-05T11:03:32.943Z,10.63
2022-12-05T11:05:05.357Z,11.18
2022-12-05T11:06:37.701Z,9.30
2022-12-05T11:08:35.647Z,10.50
2022-12-05T11:10:36.121Z,11.68
2022-12-05T11:12:39.051Z,9.45
2022-12-05T11:14:25.929Z,9.80
2022-12-05T11:15:58.061Z,10.90
2022-12-05T11:17:40.698Z,11.85
2022-12-05T11:19:22.036Z,10.85
2022-12-05T11:20:54.244Z,12.10
2022-12-05T11:22:34.461Z,12.73
2022-12-05T11:24:25.335Z,12.88
2022-12-05T11:25:58.655Z,11.43
2022-12-05T11:27:32.650Z,11.85
2022-12-05T11:29:29.326Z,11.88
2022-12-05T11:31:22.966Z,12.23
2022-12-05T11:33:20.129Z,12.97
2022-12-05T11:35:13.587Z,11.48
2022-12-05T11:36:51.044Z,11.55
2022-12-05T11:38:27.536Z,12.68
2022-12-05T11:40:01.224Z,10.40
2022-12-05T11:42:05.778Z,10.38
2022-12-05T11:44:22.334Z,11.13
2022-12-05T11:46:24.974Z,11.23
2022-12-05T11:47:58.503Z,11.53
2022-12-05T11:49:55.816Z,11.50
2022-12-05T11:51:40.939Z,11.30
2022-12-05T11:53:33.749Z,11.50
2022-12-05T11:55:26.516Z,10.25
2022-12-05T11:57:01.441Z,9.60
2022-12-05T12:00:43.459Z,10.13
2022-12-05T12:02:45.462Z,15.63
2022-12-05T12:04:39.087Z,9.98
2022-12-05T12:06:23.061Z,10.10
2022-12-05T12:09:53.049Z,8.52
2022-12-05T12:11:33.970Z,9.25
2022-12-05T12:13:32.376Z,9.05
2022-12-05T12:15:27.809Z,12.57
2022-12-05T12:17:24.084Z,8.95
2022-12-05T12:19:23.783Z,9.43
2022-12-05T12:21:14.552Z,9.65
2022-12-05T12:23:03.097Z,8.13
2022-12-05T12:25:00.074Z,26.50
2022-12-05T12:26:37.923Z,12.13
2022-12-05T12:28:34.122Z,13.30
2022-12-05T12:30:37.692Z,12.63
2022-12-05T12:32:41.268Z,11.82
2022-12-05T12:34:42.510Z,16.55
2022-12-05T12:36:19.367Z,12.20
2022-12-05T12:38:45.682Z,12.13
2022-12-05T12:40:31.375Z,10.82
2022-12-05T12:42:17.616Z,9.07
2022-12-05T12:43:54.393Z,9.35
2022-12-05T12:45:48.360Z,9.90
2022-12-05T12:47:42.183Z,9.87
2022-12-05T12:49:26.227Z,10.98
2022-12-05T12:52:56.025Z,12.13
2022-12-05T12:56:56.762Z,12.48
2022-12-05T12:59:03.521Z,14.15
2022-12-05T13:01:00.247Z,13.85
2022-12-05T13:02:35.864Z,14.43
2022-12-05T13:04:12.899Z,15.18
2022-12-05T13:05:49.084Z,14.10
2022-12-05T13:07:31.690Z,13.15
2022-12-05T13:09:29.675Z,13.98
2022-12-05T13:11:05.623Z,13.05
2022-12-05T13:12:39.717Z,13.02
2022-12-05T13:14:16.822Z,18.27
2022-12-05T13:15:54.101Z,14.27
2022-12-05T13:17:26.271Z,12.50
2022-12-05T13:18:59.485Z,14.55
2022-12-05T13:20:33.558Z,12.57
2022-12-05T13:22:07.056Z,12.52
2022-12-05T13:23:48.861Z,14.80
2022-12-05T13:25:22.994Z,15.88
2022-12-05T13:27:07.197Z,13.77
2022-12-05T13:28:52.115Z,15.25
2022-12-05T13:30:28.683Z,13.30
2022-12-05T13:33:44.617Z,12.98
2022-12-05T13:35:43.037Z,13.80
2022-12-05T13:37:48.670Z,13.82
2022-12-05T13:39:41.571Z,13.27
2022-12-05T13:41:32.803Z,14.48
2022-12-05T13:43:05.665Z,13.90
2022-12-05T13:44:57.724Z,14.40
2022-12-05T13:46:33.069Z,15.23
2022-12-05T13:48:20.676Z,14.52
2022-12-05T13:49:57.973Z,13.15
2022-12-05T13:51:35.248Z,14.10
2022-12-05T13:53:23.661Z,12.68
2022-12-05T13:55:06.865Z,12.80
2022-12-05T13:57:04.426Z,12.47
2022-12-05T13:58:45.609Z,12.20
2022-12-05T14:00:17.561Z,12.48
2022-12-05T14:01:55.634Z,12.02
2022-12-05T14:03:33.907Z,12.93
2022-12-05T14:05:28.214Z,12.95
2022-12-05T14:07:00.322Z,12.25
2022-12-05T14:08:32.397Z,13.10
2022-12-05T14:10:04.997Z,13.93
2022-12-05T14:11:37.048Z,12.50
2022-12-05T14:13:15.360Z,12.32
2022-12-05T14:14:59.578Z,11.48
2022-12-05T14:18:31.449Z,12.00
2022-12-05T14:20:11.171Z,12.60
2022-12-05T14:21:56.147Z,11.88
2022-12-05T14:23:36.844Z,12.45
2022-12-05T14:25:23.261Z,12.27
2022-12-05T14:27:16.872Z,12.02
2022-12-05T14:29:13.071Z,11.65
2022-12-05T14:31:02.763Z,12.05
2022-12-05T14:32:37.536Z,11.55
2022-12-05T14:34:22.737Z,11.77
2022-12-05T14:35:54.994Z,11.23
2022-12-05T14:37:33.674Z,11.30
2022-12-05T14:39:22.044Z,11.52
2022-12-05T14:41:06.031Z,12.20
2022-12-05T14:43:05.029Z,11.82
2022-12-05T14:44:37.271Z,11.32
2022-12-05T14:46:20.437Z,11.10
2022-12-05T14:47:55.779Z,11.70
2022-12-05T14:49:38.123Z,11.30
2022-12-05T14:53:20.979Z,10.75
2022-12-05T14:54:55.122Z,10.07
2022-12-05T14:56:27.952Z,10.10
2022-12-05T14:58:00.480Z,9.85
2022-12-05T14:59:47.405Z,10.00
2022-12-05T15:01:49.206Z,9.40
2022-12-05T15:03:30.656Z,9.55
2022-12-05T15:05:23.231Z,10.38
2022-12-05T15:07:05.902Z,9.20
2022-12-05T15:09:14.566Z,9.50
2022-12-05T15:10:50.873Z,10.02
2022-12-05T15:12:34.626Z,10.02
2022-12-05T15:14:21.454Z,9.40
2022-12-05T15:16:18.897Z,9.95
2022-12-05T15:17:58.675Z,10.60
2022-12-05T15:19:43.600Z,10.43
2022-12-05T15:21:29.620Z,9.82
2022-12-05T15:23:01.614Z,10.35
2022-12-05T15:24:39.997Z,10.82
2022-12-05T15:26:47.614Z,12.20
2022-12-05T15:28:20.397Z,11.88
2022-12-05T15:29:54.807Z,11.20
2022-12-05T15:31:32.781Z,11.98
2022-12-05T15:33:05.373Z,12.32
2022-12-05T15:36:31.547Z,12.85
2022-12-05T15:38:14.022Z,12.18
2022-12-05T15:40:00.413Z,12.38
2022-12-05T15:41:32.759Z,12.98
2022-12-05T15:43:32.202Z,13.00
2022-12-05T15:45:16.366Z,12.95
2022-12-05T15:46:55.812Z,13.55
2022-12-05T15:48:27.842Z,13.73
2022-12-05T15:50:00.349Z,14.75
2022-12-05T15:51:37.819Z,14.17
2022-12-05T15:53:36.196Z,13.93
2022-12-05T15:55:13.425Z,14.15
2022-12-05T15:56:51.016Z,15.70
2022-12-05T15:58:32.099Z,16.85
2022-12-05T16:00:13.542Z,15.85
2022-12-05T16:01:52.124Z,17.95
2022-12-05T16:03:28.842Z,17.00
2022-12-05T16:06:37.994Z,17.40
2022-12-05T16:08:10.341Z,17.40
2022-12-05T16:09:44.801Z,17.08
2022-12-05T16:11:17.208Z,16.60
2022-12-05T16:12:50.831Z,17.13
2022-12-05T16:16:20.625Z,16.52
2022-12-05T16:17:55.365Z,17.25
2022-12-05T16:19:28.040Z,17.90
2022-12-05T16:21:00.310Z,17.30
2022-12-05T16:22:34.242Z,16.52
2022-12-05T16:24:22.469Z,16.63
2022-12-05T16:25:54.921Z,17.38
2022-12-05T16:27:32.622Z,15.35
2022-12-05T16:29:04.774Z,15.70
2022-12-05T16:30:37.797Z,15.73
2022-12-05T16:32:30.026Z,14.40
2022-12-05T16:34:13.310Z,12.68
2022-12-05T16:35:46.622Z,13.07
2022-12-05T16:37:27.017Z,13.25
2022-12-05T16:39:06.982Z,14.63
2022-12-05T16:42:28.896Z,12.95
2022-12-05T16:44:01.024Z,12.60
2022-12-05T16:45:44.285Z,13.45
2022-12-05T16:47:27.445Z,13.88
2022-12-05T16:49:30.389Z,14.98
2022-12-05T16:51:11.584Z,13.82
2022-12-05T16:52:43.695Z,13.30
2022-12-05T16:54:15.718Z,12.00
2022-12-05T16:55:48.330Z,13.10
2022-12-05T16:57:20.577Z,13.23
2022-12-05T16:58:52.764Z,13.27
2022-12-05T17:00:24.755Z,12.77
2022-12-05T17:01:56.997Z,12.95
2022-12-05T17:03:36.823Z,12.77
2022-12-05T17:05:15.179Z,11.93
2022-12-05T17:06:47.378Z,12.07
2022-12-05T17:08:19.425Z,12.10
2022-12-05T17:09:51.500Z,11.80
2022-12-05T17:11:30.422Z,11.90
2022-12-05T17:13:03.604Z,12.68
2022-12-05T17:16:10.561Z,11.57
2022-12-05T17:17:42.626Z,11.75
2022-12-05T17:19:14.852Z,12.30
2022-12-05T17:20:50.457Z,12.38
2022-12-05T17:22:22.997Z,10.73
2022-12-05T17:23:55.132Z,10.77
2022-12-05T17:25:36.605Z,10.40
2022-12-05T17:27:12.425Z,11.48
2022-12-05T17:28:44.481Z,13.63
2022-12-05T17:30:16.786Z,12.75
2022-12-05T17:31:49.843Z,12.43
2022-12-05T17:33:22.169Z,11.35
2022-12-05T17:34:54.257Z,11.23
2022-12-05T17:36:26.436Z,11.60
2022-12-05T17:37:58.642Z,12.00
2022-12-05T17:39:33.102Z,12.15
2022-12-05T17:41:07.210Z,11.82
2022-12-05T17:42:40.727Z,11.80
2022-12-05T17:44:15.146Z,11.65
2022-12-05T17:45:48.557Z,11.77
2022-12-05T17:47:20.606Z,11.75
2022-12-05T17:50:30.482Z,11.43
2022-12-05T17:53:56.574Z,11.70
2022-12-05T17:55:29.558Z,12.30
2022-12-05T17:57:01.585Z,12.15
2022-12-05T17:58:33.953Z,11.05
2022-12-05T18:00:06.667Z,10.95
2022-12-05T18:01:39.085Z,12.60
2022-12-05T18:03:17.121Z,12.43
2022-12-05T18:04:49.330Z,12.75
2022-12-05T18:06:21.347Z,12.23
2022-12-05T18:07:53.387Z,10.52
2022-12-05T18:09:25.472Z,11.25
2022-12-05T18:10:58.698Z,11.82
2022-12-05T18:12:30.841Z,12.45
2022-12-05T18:14:02.884Z,13.57
2022-12-05T18:15:40.934Z,15.02
2022-12-05T18:17:14.970Z,16.73
2022-12-05T18:18:46.975Z,12.93
2022-12-05T18:20:19.277Z,12.50
2022-12-05T18:21:51.334Z,11.82
2022-12-05T18:23:35.232Z,12.23
2022-12-05T18:25:07.888Z,10.85
2022-12-05T18:26:42.995Z,11.17
2022-12-05T18:28:17.893Z,13.10
2022-12-05T18:29:51.917Z,11.82
2022-12-05T18:31:24.051Z,11.70
2022-12-05T18:32:56.091Z,11.98
2022-12-05T18:34:28.195Z,11.25
2022-12-05T18:36:05.600Z,13.18
2022-12-05T18:37:38.671Z,13.55
2022-12-05T18:39:14.947Z,15.40
2022-12-05T18:40:47.013Z,15.25
2022-12-05T18:42:19.178Z,16.92
2022-12-05T18:43:51.448Z,13.25
2022-12-05T18:45:23.463Z,13.50
2022-12-05T18:46:55.570Z,13.65
2022-12-05T18:48:47.646Z,13.45
2022-12-05T18:50:20.100Z,12.50
2022-12-05T18:51:52.630Z,13.55
2022-12-05T18:53:24.759Z,13.57
2022-12-05T18:55:15.604Z,12.75
2022-12-05T18:56:51.210Z,14.02
2022-12-05T18:59:54.945Z,12.85
2022-12-05T19:01:28.264Z,13.13
2022-12-05T19:03:03.088Z,14.50
2022-12-05T19:04:37.327Z,12.82
2022-12-05T19:06:17.840Z,13.98
2022-12-05T19:07:53.567Z,13.43
2022-12-05T19:09:28.022Z,13.48
2022-12-05T19:11:04.913Z,13.20
2022-12-05T19:12:37.254Z,12.73
2022-12-05T19:14:10.818Z,13.45
2022-12-05T19:17:14.810Z,13.20
2022-12-05T19:18:47.886Z,12.15
2022-12-05T19:20:19.944Z,13.07
2022-12-05T19:21:52.208Z,12.80
2022-12-05T19:23:24.663Z,12.43
2022-12-05T19:24:57.294Z,12.70
2022-12-05T19:26:29.913Z,12.65
2022-12-05T19:28:01.909Z,13.43
2022-12-05T19:29:33.980Z,12.10
2022-12-05T19:31:11.638Z,12.48
2022-12-05T19:32:55.145Z,11.82
2022-12-05T19:34:27.203Z,12.73
2022-12-05T19:36:06.243Z,12.40
2022-12-05T19:37:38.315Z,12.15
2022-12-05T19:39:15.212Z,12.68
2022-12-05T19:40:57.654Z,12.32
2022-12-05T19:42:31.358Z,13.13
2022-12-05T19:44:04.346Z,13.18
2022-12-05T19:45:39.026Z,13.30
2022-12-05T19:47:11.068Z,13.02
2022-12-05T19:48:43.273Z,13.10
2022-12-05T19:50:15.307Z,12.50
2022-12-05T19:51:48.876Z,13.68
2022-12-05T19:54:52.693Z,13.10
2022-12-05T19:56:26.175Z,12.88
2022-12-05T19:57:58.210Z,13.75
2022-12-05T19:59:30.208Z,14.30
2022-12-05T20:01:16.837Z,13.25
2022-12-05T20:04:26.331Z,15.00
2022-12-05T20:05:59.041Z,15.85
2022-12-05T20:07:31.250Z,14.93
2022-12-05T20:09:05.120Z,14.60
2022-12-05T20:10:38.056Z,15.25
2022-12-05T20:12:10.048Z,16.85
2022-12-05T20:13:46.869Z,17.27
2022-12-05T20:15:19.607Z,17.48
2022-12-05T20:16:52.439Z,17.63
2022-12-05T20:18:24.463Z,16.58
2022-12-05T20:19:56.636Z,17.20
2022-12-05T20:21:31.799Z,19.58
2022-12-05T20:23:03.905Z,18.83
2022-12-05T20:24:35.966Z,18.08
2022-12-05T20:26:14.665Z,18.48
2022-12-05T20:27:46.977Z,18.27
2022-12-05T20:29:19.223Z,18.65
2022-12-05T20:30:51.280Z,16.17
2022-12-05T20:32:23.379Z,18.00
2022-12-05T20:33:55.951Z,15.73
2022-12-05T20:35:27.988Z,16.92
2022-12-05T20:37:00.111Z,16.77
2022-12-05T20:38:34.289Z,16.27
2022-12-05T20:40:07.121Z,16.20
2022-12-05T20:41:39.188Z,14.75
2022-12-05T20:43:11.198Z,16.08
2022-12-05T20:44:43.278Z,17.45
2022-12-05T20:46:17.909Z,16.33
2022-12-05T20:47:51.642Z,16.38
2022-12-05T20:49:23.682Z,16.90
2022-12-05T20:50:58.760Z,16.23
2022-12-05T20:52:31.576Z,15.02
2022-12-05T20:54:05.693Z,15.27
2022-12-05T20:55:37.788Z,15.52
2022-12-05T20:57:09.873Z,16.92
2022-12-05T20:58:44.982Z,16.70
2022-12-05T21:00:17.247Z,17.33
2022-12-05T21:03:21.528Z,19.30
2022-12-05T21:04:53.913Z,21.00
2022-12-05T21:06:29.032Z,21.00
2022-12-05T21:08:01.101Z,22.20
2022-12-05T21:09:35.270Z,21.33
2022-12-05T21:11:07.980Z,21.08
2022-12-05T21:12:40.000Z,19.83
2022-12-05T21:14:12.304Z,20.33
2022-12-05T21:15:44.528Z,19.02
2022-12-05T21:17:16.588Z,19.08
2022-12-05T21:18:49.170Z,18.30
2022-12-05T21:20:23.789Z,20.15
2022-12-05T21:21:56.300Z,19.02
2022-12-05T21:23:28.388Z,19.40
2022-12-05T21:25:00.389Z,18.00
2022-12-05T21:26:34.199Z,19.42
2022-12-05T21:28:06.211Z,18.50
2022-12-05T21:29:40.962Z,18.85
2022-12-05T21:31:16.294Z,18.42
2022-12-05T21:32:48.404Z,20.23
2022-12-05T21:34:21.694Z,21.02
2022-12-05T21:35:55.479Z,18.45
2022-12-05T21:37:27.536Z,19.10
2022-12-05T21:39:00.026Z,19.35
2022-12-05T21:40:32.044Z,21.35
2022-12-05T21:42:04.115Z,20.25
2022-12-05T21:43:36.931Z,20.13
2022-12-05T21:45:09.299Z,19.17
2022-12-05T21:46:41.617Z,19.13
2022-12-05T21:48:13.742Z,19.77
2022-12-05T21:49:45.691Z,18.90
2022-12-05T21:51:17.981Z,19.73
2022-12-05T21:52:50.058Z,19.17
2022-12-05T21:54:21.993Z,18.80
2022-12-05T21:56:02.001Z,18.85
2022-12-05T21:57:34.957Z,19.33
2022-12-05T21:59:07.047Z,19.15
2022-12-05T22:00:39.703Z,19.70
2022-12-05T22:02:11.950Z,18.67
2022-12-05T22:03:43.969Z,17.98
2022-12-05T22:05:16.063Z,19.25
2022-12-05T22:06:48.094Z,18.38
2022-12-05T22:08:20.148Z,18.95
2022-12-05T22:09:52.127Z,19.13
2022-12-05T22:11:24.777Z,18.27
2022-12-05T22:12:57.080Z,19.95